Wetterdaten: Woche 28.02.22 - 06.03.22 (KW9)
Datum Zeit Temp. Aussen Temp. o. S. Temp +5cm Feuchte Auss Luftdruck Regen Sonnenschein Regendauer Solar Windben Empfang
28.02.2022 00:00 4,1 C 3,2 C -0,3 C 70 % 1031,1 hPa 0,0 l/m 0,00 h 0,00 h 0 W/m 24,4 km/h (4 Bft) 97,70 %
28.02.2022 01:00 3,4 C 2,7 C -0,9 C 73 % 1031,6 hPa 0,0 l/m 0,00 h 0,00 h 0 W/m 18,4 km/h (3 Bft) 95,08 %
28.02.2022 02:00 3,0 C 2,2 C -1,4 C 74 % 1031,5 hPa 0,0 l/m 0,00 h 0,00 h 0 W/m 18,0 km/h (3 Bft) 99,43 %
28.02.2022 03:00 2,6 C 1,7 C -1,8 C 75 % 1031,5 hPa 0,0 l/m 0,00 h 0,00 h 0 W/m 14,4 km/h (3 Bft) 97,65 %
28.02.2022 04:00 1,9 C 0,8 C -2,4 C 77 % 1031,5 hPa 0,0 l/m 0,00 h 0,00 h 0 W/m 9,1 km/h (2 Bft) 96,72 %
28.02.2022 05:00 1,2 C 0,1 C -3,2 C 79 % 1031,5 hPa 0,0 l/m 0,00 h 0,00 h 0 W/m 7,1 km/h (2 Bft) 95,42 %
28.02.2022 06:00 0,9 C 0,1 C -3,1 C 80 % 1031,3 hPa 0,0 l/m 0,00 h 0,00 h 0 W/m 8,9 km/h (2 Bft) 97,44 %
28.02.2022 07:00 0,8 C 0,0 C -3,3 C 81 % 1031,5 hPa 0,0 l/m 0,00 h 0,00 h 11 W/m 10,7 km/h (2 Bft) 97,51 %
28.02.2022 08:00 1,4 C 1,3 C -2,4 C 80 % 1031,5 hPa 0,0 l/m 0,20 h 0,00 h 56 W/m 15,0 km/h (3 Bft) 96,15 %
28.02.2022 09:00 3,8 C 5,2 C -0,4 C 72 % 1031,7 hPa 0,0 l/m 0,57 h 0,00 h 178 W/m 22,6 km/h (4 Bft) 99,57 %
28.02.2022 10:00 6,1 C 10,4 C 2,1 C 64 % 1031,8 hPa 0,0 l/m 0,87 h 0,00 h 350 W/m 22,0 km/h (4 Bft) 96,44 %
28.02.2022 11:00 8,1 C 13,5 C 8,2 C 57 % 1031,9 hPa 0,0 l/m 1,00 h 0,00 h 512 W/m 23,6 km/h (4 Bft) 99,50 %
28.02.2022 12:00 8,9 C 11,1 C 6,4 C 54 % 1031,4 hPa 0,0 l/m 0,60 h 0,00 h 354 W/m 27,3 km/h (4 Bft) 98,46 %
28.02.2022 13:00 10,4 C 17,6 C 6,2 C 50 % 1030,9 hPa 0,0 l/m 1,00 h 0,00 h 578 W/m 22,8 km/h (4 Bft) 97,36 %
28.02.2022 14:00 11,6 C 16,3 C 6,8 C 47 % 1030,4 hPa 0,0 l/m 1,00 h 0,00 h 514 W/m 22,4 km/h (4 Bft) 96,08 %
28.02.2022 15:00 11,9 C 15,6 C 6,9 C 45 % 1030,1 hPa 0,0 l/m 1,00 h 0,00 h 397 W/m 20,3 km/h (4 Bft) 96,38 %
28.02.2022 16:00 11,6 C 11,3 C 6,1 C 47 % 1029,8 hPa 0,0 l/m 0,67 h 0,00 h 177 W/m 16,8 km/h (3 Bft) 98,73 %
28.02.2022 17:00 10,2 C 9,1 C 5,1 C 53 % 1029,1 hPa 0,0 l/m 0,00 h 0,00 h 22 W/m 15,1 km/h (3 Bft) 97,26 %
28.02.2022 18:00 8,9 C 7,7 C 3,8 C 56 % 1029,1 hPa 0,0 l/m 0,00 h 0,00 h 6 W/m 14,9 km/h (3 Bft) 96,81 %
28.02.2022 19:00 7,8 C 6,8 C 3,0 C 57 % 1029,4 hPa 0,0 l/m 0,00 h 0,00 h 0 W/m 14,8 km/h (3 Bft) 97,73 %
28.02.2022 20:00 7,0 C 6,1 C 2,3 C 57 % 1029,7 hPa 0,0 l/m 0,00 h 0,00 h 0 W/m 13,9 km/h (3 Bft) 97,70 %
28.02.2022 21:00 6,1 C 4,9 C 1,2 C 61 % 1029,7 hPa 0,0 l/m 0,00 h 0,00 h 0 W/m 9,5 km/h (2 Bft) 95,80 %
28.02.2022 22:00 5,3 C 4,4 C 0,8 C 64 % 1029,6 hPa 0,0 l/m 0,00 h 0,00 h 0 W/m 11,3 km/h (2 Bft) 98,79 %
28.02.2022 23:00 4,8 C 3,7 C 0,1 C 66 % 1029,7 hPa 0,0 l/m 0,00 h 0,00 h 0 W/m 7,1 km/h (2 Bft) 97,14 %
01.03.2022 00:00 4,2 C 3,3 C -0,0 C 68 % 1029,5 hPa 0,0 l/m 0,00 h 0,00 h 0 W/m 12,4 km/h (3 Bft) 96,37 %
01.03.2022 01:00 3,9 C 3,0 C -0,6 C 69 % 1029,4 hPa 0,0 l/m 0,00 h 0,00 h 0 W/m 8,7 km/h (2 Bft) 96,15 %
01.03.2022 02:00 3,6 C 2,7 C -1,0 C 70 % 1029,3 hPa 0,0 l/m 0,00 h 0,00 h 0 W/m 6,9 km/h (2 Bft) 98,43 %
01.03.2022 03:00 2,9 C 1,8 C -1,6 C 72 % 1029,1 hPa 0,0 l/m 0,00 h 0,00 h 0 W/m 6,1 km/h (2 Bft) 98,01 %
01.03.2022 04:00 2,2 C 1,5 C -1,9 C 74 % 1028,9 hPa 0,0 l/m 0,00 h 0,00 h 0 W/m 12,9 km/h (3 Bft) 96,01 %
01.03.2022 05:00 2,1 C 1,5 C -1,9 C 75 % 1028,8 hPa 0,0 l/m 0,00 h 0,00 h 0 W/m 11,9 km/h (2 Bft) 98,10 %
01.03.2022 06:00 2,3 C 1,6 C -1,8 C 75 % 1028,9 hPa 0,0 l/m 0,00 h 0,00 h 0 W/m 12,2 km/h (2 Bft) 97,04 %
01.03.2022 07:00 2,6 C 2,1 C -1,6 C 74 % 1028,9 hPa 0,0 l/m 0,00 h 0,00 h 16 W/m 16,5 km/h (3 Bft) 96,52 %
01.03.2022 08:00 2,9 C 2,6 C -1,1 C 73 % 1029,1 hPa 0,0 l/m 0,00 h 0,00 h 54 W/m 17,2 km/h (3 Bft) 97,81 %
01.03.2022 09:00 3,9 C 4,4 C 0,1 C 69 % 1029,3 hPa 0,0 l/m 1,00 h 0,00 h 181 W/m 19,3 km/h (3 Bft) 97,45 %
01.03.2022 10:00 4,9 C 5,6 C 1,3 C 65 % 1029,3 hPa 0,0 l/m 0,53 h 0,00 h 224 W/m 20,9 km/h (4 Bft) 95,38 %
01.03.2022 11:00 6,4 C 6,9 C 2,9 C 62 % 1029,5 hPa 0,0 l/m 0,67 h 0,00 h 251 W/m 16,0 km/h (3 Bft) 99,22 %
01.03.2022 12:00 7,8 C 8,8 C 4,3 C 58 % 1029,3 hPa 0,0 l/m 0,90 h 0,00 h 296 W/m 17,1 km/h (3 Bft) 97,35 %
01.03.2022 13:00 9,1 C 12,0 C 5,2 C 55 % 1029,0 hPa 0,0 l/m 1,00 h 0,00 h 403 W/m 16,2 km/h (3 Bft) 98,29 %
01.03.2022 14:00 9,7 C 10,0 C 5,6 C 51 % 1028,3 hPa 0,0 l/m 0,47 h 0,00 h 236 W/m 15,7 km/h (3 Bft) 96,59 %
01.03.2022 15:00 9,7 C 9,6 C 5,2 C 50 % 1027,9 hPa 0,0 l/m 0,20 h 0,00 h 146 W/m 12,5 km/h (3 Bft) 98,01 %
01.03.2022 16:00 9,3 C 8,7 C 4,8 C 52 % 1027,4 hPa 0,0 l/m 0,00 h 0,00 h 62 W/m 7,3 km/h (2 Bft) 96,31 %
01.03.2022 17:00 9,0 C 8,1 C 4,2 C 56 % 1027,2 hPa 0,0 l/m 0,47 h 0,00 h 47 W/m 4,1 km/h (1 Bft) 97,68 %
01.03.2022 18:00 8,0 C 6,2 C 2,3 C 62 % 1027,4 hPa 0,0 l/m 0,00 h 0,00 h 5 W/m 1,7 km/h (1 Bft) 96,88 %
01.03.2022 19:00 6,8 C 5,9 C 1,9 C 59 % 1027,6 hPa 0,0 l/m 0,00 h 0,00 h 0 W/m 5,4 km/h (1 Bft) 97,89 %
01.03.2022 20:00 6,2 C 5,1 C 1,1 C 60 % 1027,6 hPa 0,0 l/m 0,00 h 0,00 h 0 W/m 3,4 km/h (1 Bft) 97,22 %
01.03.2022 21:00 5,8 C 5,0 C 1,1 C 61 % 1027,6 hPa 0,0 l/m 0,00 h 0,00 h 0 W/m 5,9 km/h (2 Bft) 96,18 %
01.03.2022 22:00 5,7 C 5,0 C 1,1 C 62 % 1027,5 hPa 0,0 l/m 0,00 h 0,00 h 0 W/m 6,9 km/h (2 Bft) 98,22 %
01.03.2022 23:00 5,7 C 5,0 C 1,2 C 64 % 1027,4 hPa 0,0 l/m 0,00 h 0,00 h 0 W/m 6,2 km/h (2 Bft) 97,28 %
02.03.2022 00:00 5,2 C 4,2 C 0,6 C 66 % 1027,1 hPa 0,0 l/m 0,00 h 0,00 h 0 W/m 5,3 km/h (1 Bft) 95,63 %
02.03.2022 01:00 4,3 C 3,3 C -0,4 C 68 % 1026,9 hPa 0,0 l/m 0,00 h 0,00 h 0 W/m 3,2 km/h (1 Bft) 98,84 %
02.03.2022 02:00 3,6 C 2,5 C -1,0 C 68 % 1026,4 hPa 0,0 l/m 0,00 h 0,00 h 0 W/m 2,6 km/h (1 Bft) 96,40 %
02.03.2022 03:00 2,9 C 1,4 C -2,0 C 70 % 1026,0 hPa 0,0 l/m 0,00 h 0,00 h 0 W/m 0,4 km/h (0 Bft) 96,35 %
02.03.2022 04:00 2,0 C 1,0 C -2,5 C 72 % 1025,6 hPa 0,0 l/m 0,00 h 0,00 h 0 W/m 0,3 km/h (0 Bft) 96,44 %
02.03.2022 05:00 1,4 C 0,7 C -2,8 C 74 % 1025,4 hPa 0,0 l/m 0,00 h 0,00 h 0 W/m 1,6 km/h (1 Bft) 98,29 %
02.03.2022 06:00 1,4 C 0,6 C -2,8 C 75 % 1025,1 hPa 0,0 l/m 0,00 h 0,00 h 0 W/m 1,0 km/h (0 Bft) 97,41 %
02.03.2022 07:00 1,2 C 0,6 C -2,9 C 76 % 1025,2 hPa 0,0 l/m 0,23 h 0,00 h 24 W/m 2,2 km/h (1 Bft) 96,39 %
02.03.2022 08:00 1,6 C 2,2 C -2,0 C 77 % 1025,3 hPa 0,0 l/m 0,20 h 0,00 h 80 W/m 2,5 km/h (1 Bft) 96,53 %
02.03.2022 09:00 4,3 C 8,0 C 0,1 C 72 % 1025,1 hPa 0,0 l/m 0,87 h 0,00 h 191 W/m 5,8 km/h (2 Bft) 99,45 %
02.03.2022 10:00 8,1 C 15,1 C 3,9 C 55 % 1024,7 hPa 0,0 l/m 0,83 h 0,00 h 318 W/m 8,6 km/h (2 Bft) 95,27 %
02.03.2022 11:00 10,5 C 19,0 C 10,6 C 47 % 1024,5 hPa 0,0 l/m 1,00 h 0,00 h 501 W/m 10,6 km/h (2 Bft) 99,15 %
02.03.2022 12:00 10,8 C 15,2 C 8,2 C 45 % 1024,0 hPa 0,0 l/m 0,70 h 0,00 h 383 W/m 10,0 km/h (2 Bft) 98,59 %
02.03.2022 13:00 12,5 C 25,4 C 7,6 C 43 % 1023,3 hPa 0,0 l/m 1,00 h 0,00 h 573 W/m 9,2 km/h (2 Bft) 98,15 %
02.03.2022 14:00 13,1 C 20,9 C 7,9 C 40 % 1022,5 hPa 0,0 l/m 1,00 h 0,00 h 467 W/m 9,0 km/h (2 Bft) 96,19 %
02.03.2022 15:00 13,1 C 19,4 C 7,8 C 39 % 1022,0 hPa 0,0 l/m 1,00 h 0,00 h 371 W/m 8,5 km/h (2 Bft) 97,23 %
02.03.2022 16:00 12,4 C 12,9 C 6,2 C 43 % 1021,6 hPa 0,0 l/m 0,63 h 0,00 h 154 W/m 7,0 km/h (2 Bft) 96,48 %
02.03.2022 17:00 10,1 C 8,5 C 4,3 C 51 % 1021,2 hPa 0,0 l/m 0,00 h 0,00 h 23 W/m 5,2 km/h (1 Bft) 97,79 %
02.03.2022 18:00 8,0 C 5,9 C 2,1 C 56 % 1021,4 hPa 0,0 l/m 0,00 h 0,00 h 7 W/m 2,4 km/h (1 Bft) 96,77 %
02.03.2022 19:00 6,3 C 4,9 C 0,7 C 60 % 1021,4 hPa 0,0 l/m 0,00 h 0,00 h 0 W/m 2,9 km/h (1 Bft) 94,95 %
02.03.2022 20:00 5,3 C 3,4 C -0,7 C 63 % 1021,3 hPa 0,0 l/m 0,00 h 0,00 h 0 W/m 0,2 km/h (0 Bft) 99,06 %
02.03.2022 21:00 4,0 C 2,4 C -1,8 C 68 % 1021,3 hPa 0,0 l/m 0,00 h 0,00 h 0 W/m 0,7 km/h (0 Bft) 98,09 %
02.03.2022 22:00 3,0 C 1,6 C -2,2 C 72 % 1021,2 hPa 0,0 l/m 0,00 h 0,00 h 0 W/m 0,6 km/h (0 Bft) 97,79 %
02.03.2022 23:00 2,7 C 2,3 C -1,9 C 73 % 1021,1 hPa 0,0 l/m 0,00 h 0,00 h 0 W/m 2,6 km/h (1 Bft) 97,89 %
03.03.2022 00:00 3,1 C 1,7 C -2,0 C 69 % 1021,1 hPa 0,0 l/m 0,00 h 0,00 h 0 W/m 1,2 km/h (1 Bft) 94,88 %
03.03.2022 01:00 2,0 C 0,2 C -3,6 C 71 % 1021,0 hPa 0,0 l/m 0,00 h 0,00 h 0 W/m 0,9 km/h (0 Bft) 98,01 %
03.03.2022 02:00 1,0 C -0,7 C -4,2 C 73 % 1020,7 hPa 0,0 l/m 0,00 h 0,00 h 0 W/m 0,1 km/h (0 Bft) 97,52 %
03.03.2022 03:00 -0,2 C -1,7 C -5,0 C 76 % 1020,3 hPa 0,0 l/m 0,00 h 0,00 h 0 W/m 0,1 km/h (0 Bft) 94,81 %
03.03.2022 04:00 -1,0 C -1,9 C -5,0 C 80 % 1019,9 hPa 0,0 l/m 0,00 h 0,00 h 0 W/m 2,0 km/h (1 Bft) 93,71 %
03.03.2022 05:00 -0,8 C -1,9 C -5,1 C 82 % 1019,4 hPa 0,0 l/m 0,00 h 0,00 h 0 W/m 1,6 km/h (1 Bft) 97,21 %
03.03.2022 06:00 -1,5 C -3,0 C -5,9 C 81 % 1019,2 hPa 0,0 l/m 0,00 h 0,00 h 0 W/m 0,0 km/h (0 Bft) 97,44 %
03.03.2022 07:00 -2,5 C -3,3 C -6,4 C 83 % 1019,4 hPa 0,0 l/m 0,00 h 0,00 h 10 W/m 0,0 km/h (0 Bft) 96,09 %
03.03.2022 08:00 -2,5 C -2,0 C -5,5 C 87 % 1019,4 hPa 0,0 l/m 0,20 h 0,00 h 64 W/m 0,7 km/h (0 Bft) 96,80 %
03.03.2022 09:00 1,2 C 6,3 C -2,1 C 86 % 1019,5 hPa 0,0 l/m 0,80 h 0,00 h 209 W/m 4,7 km/h (1 Bft) 98,43 %
03.03.2022 10:00 6,7 C 13,0 C 3,1 C 61 % 1019,5 hPa 0,0 l/m 0,87 h 0,00 h 357 W/m 12,8 km/h (3 Bft) 98,10 %
03.03.2022 11:00 9,7 C 17,1 C 10,7 C 51 % 1019,3 hPa 0,0 l/m 1,00 h 0,00 h 526 W/m 13,3 km/h (3 Bft) 97,31 %
03.03.2022 12:00 10,8 C 14,5 C 8,3 C 47 % 1019,0 hPa 0,0 l/m 0,80 h 0,00 h 411 W/m 11,9 km/h (2 Bft) 99,53 %
03.03.2022 13:00 12,5 C 22,7 C 7,6 C 43 % 1018,4 hPa 0,0 l/m 1,00 h 0,00 h 593 W/m 11,1 km/h (2 Bft) 97,29 %
03.03.2022 14:00 13,5 C 21,8 C 8,3 C 40 % 1017,9 hPa 0,0 l/m 1,00 h 0,00 h 524 W/m 10,7 km/h (2 Bft) 96,01 %
03.03.2022 15:00 14,2 C 20,6 C 8,8 C 38 % 1017,6 hPa 0,0 l/m 1,00 h 0,00 h 410 W/m 9,8 km/h (2 Bft) 99,71 %
03.03.2022 16:00 13,0 C 14,2 C 6,9 C 45 % 1017,4 hPa 0,0 l/m 0,67 h 0,00 h 196 W/m 10,0 km/h (2 Bft) 97,08 %
03.03.2022 17:00 10,7 C 9,8 C 5,4 C 52 % 1017,4 hPa 0,0 l/m 0,00 h 0,00 h 27 W/m 8,4 km/h (2 Bft) 96,16 %
03.03.2022 18:00 8,4 C 6,9 C 2,9 C 60 % 1017,9 hPa 0,0 l/m 0,00 h 0,00 h 8 W/m 5,9 km/h (2 Bft) 98,59 %
03.03.2022 19:00 6,7 C 5,3 C 1,6 C 65 % 1018,4 hPa 0,0 l/m 0,00 h 0,00 h 0 W/m 5,9 km/h (2 Bft) 96,72 %
03.03.2022 20:00 5,4 C 4,0 C 0,4 C 68 % 1018,7 hPa 0,0 l/m 0,00 h 0,00 h 0 W/m 4,6 km/h (1 Bft) 97,08 %
03.03.2022 21:00 4,2 C 2,8 C -0,7 C 70 % 1019,1 hPa 0,0 l/m 0,00 h 0,00 h 0 W/m 4,2 km/h (1 Bft) 97,79 %
03.03.2022 22:00 3,4 C 2,2 C -1,2 C 73 % 1019,5 hPa 0,0 l/m 0,00 h 0,00 h 0 W/m 5,9 km/h (2 Bft) 96,86 %
03.03.2022 23:00 2,8 C 1,6 C -1,7 C 73 % 1019,9 hPa 0,0 l/m 0,00 h 0,00 h 0 W/m 4,8 km/h (1 Bft) 97,94 %
04.03.2022 00:00 2,2 C 0,6 C -2,6 C 74 % 1020,1 hPa 0,0 l/m 0,00 h 0,00 h 0 W/m 3,4 km/h (1 Bft) 94,33 %
04.03.2022 01:00 1,2 C -0,4 C -3,6 C 76 % 1020,2 hPa 0,0 l/m 0,00 h 0,00 h 0 W/m 3,2 km/h (1 Bft) 98,55 %
04.03.2022 02:00 0,3 C -1,2 C -4,2 C 79 % 1020,5 hPa 0,0 l/m 0,00 h 0,00 h 0 W/m 1,7 km/h (1 Bft) 96,82 %
04.03.2022 03:00 -0,4 C -1,7 C -4,9 C 81 % 1020,3 hPa 0,0 l/m 0,00 h 0,00 h 0 W/m 1,9 km/h (1 Bft) 95,34 %
04.03.2022 04:00 -0,9 C -2,2 C -5,0 C 83 % 1020,2 hPa 0,0 l/m 0,00 h 0,00 h 0 W/m 3,1 km/h (1 Bft) 95,73 %
04.03.2022 05:00 -1,4 C -2,7 C -5,5 C 84 % 1020,5 hPa 0,0 l/m 0,00 h 0,00 h 0 W/m 1,8 km/h (1 Bft) 97,94 %
04.03.2022 06:00 -1,5 C -2,3 C -5,6 C 86 % 1020,8 hPa 0,0 l/m 0,00 h 0,00 h 0 W/m 5,5 km/h (1 Bft) 95,32 %
04.03.2022 07:00 -1,6 C -2,8 C -5,6 C 88 % 1021,2 hPa 0,0 l/m 0,00 h 0,00 h 13 W/m 1,6 km/h (1 Bft) 98,58 %
04.03.2022 08:00 -1,3 C -1,2 C -4,8 C 89 % 1021,6 hPa 0,0 l/m 0,20 h 0,00 h 71 W/m 4,0 km/h (1 Bft) 95,62 %
04.03.2022 09:00 2,3 C 6,2 C -1,7 C 83 % 1021,9 hPa 0,0 l/m 0,70 h 0,00 h 212 W/m 7,2 km/h (2 Bft) 96,72 %
04.03.2022 10:00 6,1 C 11,6 C 2,3 C 65 % 1022,0 hPa 0,0 l/m 0,80 h 0,00 h 358 W/m 15,7 km/h (3 Bft) 97,72 %
04.03.2022 11:00 8,8 C 16,8 C 10,0 C 57 % 1021,9 hPa 0,0 l/m 1,00 h 0,00 h 542 W/m 13,1 km/h (3 Bft) 97,15 %
04.03.2022 12:00 9,4 C 13,9 C 7,0 C 55 % 1021,7 hPa 0,0 l/m 0,87 h 0,00 h 436 W/m 11,4 km/h (2 Bft) 94,66 %
04.03.2022 13:00 10,9 C 21,1 C 6,2 C 49 % 1021,3 hPa 0,0 l/m 1,00 h 0,00 h 595 W/m 13,0 km/h (3 Bft) 97,87 %
04.03.2022 14:00 11,9 C 19,4 C 6,9 C 43 % 1020,9 hPa 0,0 l/m 1,00 h 0,00 h 538 W/m 11,2 km/h (2 Bft) 98,64 %
04.03.2022 15:00 12,5 C 19,4 C 6,8 C 42 % 1020,5 hPa 0,0 l/m 1,00 h 0,00 h 422 W/m 7,5 km/h (2 Bft) 97,57 %
04.03.2022 16:00 11,3 C 13,5 C 5,6 C 47 % 1020,1 hPa 0,0 l/m 0,83 h 0,00 h 225 W/m 8,4 km/h (2 Bft) 97,64 %
04.03.2022 17:00 9,3 C 8,5 C 4,2 C 56 % 1020,1 hPa 0,0 l/m 0,00 h 0,00 h 32 W/m 11,7 km/h (2 Bft) 97,42 %
04.03.2022 18:00 6,8 C 5,5 C 1,8 C 63 % 1020,4 hPa 0,0 l/m 0,00 h 0,00 h 9 W/m 8,3 km/h (2 Bft) 95,76 %
04.03.2022 19:00 5,0 C 3,5 C -0,1 C 68 % 1020,8 hPa 0,0 l/m 0,00 h 0,00 h 0 W/m 5,2 km/h (1 Bft) 98,05 %
04.03.2022 20:00 3,8 C 2,8 C -1,0 C 73 % 1020,9 hPa 0,0 l/m 0,00 h 0,00 h 0 W/m 4,6 km/h (1 Bft) 99,21 %
04.03.2022 21:00 2,8 C 1,7 C -1,9 C 78 % 1021,0 hPa 0,0 l/m 0,00 h 0,00 h 0 W/m 4,8 km/h (1 Bft) 95,15 %
04.03.2022 22:00 1,7 C 0,5 C -2,7 C 82 % 1021,1 hPa 0,0 l/m 0,00 h 0,00 h 0 W/m 4,9 km/h (1 Bft) 95,87 %
04.03.2022 23:00 0,8 C -0,4 C -3,7 C 85 % 1021,1 hPa 0,0 l/m 0,00 h 0,00 h 0 W/m 3,9 km/h (1 Bft) 98,36 %
05.03.2022 00:00 0,2 C -1,0 C -4,2 C 87 % 1021,0 hPa 0,0 l/m 0,00 h 0,00 h 0 W/m 3,6 km/h (1 Bft) 95,33 %
05.03.2022 01:00 -0,4 C -1,5 C -4,5 C 88 % 1021,0 hPa 0,0 l/m 0,00 h 0,00 h 0 W/m 4,3 km/h (1 Bft) 92,21 %
05.03.2022 02:00 0,4 C -0,0 C -3,3 C 85 % 1020,9 hPa 0,0 l/m 0,00 h 0,00 h 0 W/m 10,1 km/h (2 Bft) 97,74 %
05.03.2022 03:00 0,4 C -0,6 C -3,8 C 83 % 1020,7 hPa 0,0 l/m 0,00 h 0,00 h 0 W/m 10,0 km/h (2 Bft) 98,08 %
05.03.2022 04:00 -0,1 C -1,1 C -4,3 C 85 % 1020,5 hPa 0,0 l/m 0,00 h 0,00 h 0 W/m 6,5 km/h (2 Bft) 97,52 %
05.03.2022 05:00 -0,3 C -1,1 C -4,4 C 86 % 1020,7 hPa 0,0 l/m 0,00 h 0,00 h 0 W/m 9,2 km/h (2 Bft) 96,44 %
05.03.2022 06:00 -0,5 C -1,3 C -4,4 C 86 % 1021,0 hPa 0,0 l/m 0,00 h 0,00 h 0 W/m 8,5 km/h (2 Bft) 98,87 %
05.03.2022 07:00 -0,8 C -1,5 C -4,4 C 87 % 1021,1 hPa 0,0 l/m 0,00 h 0,00 h 17 W/m 9,6 km/h (2 Bft) 97,65 %
05.03.2022 08:00 -0,1 C 0,0 C -3,7 C 86 % 1021,4 hPa 0,0 l/m 0,20 h 0,00 h 76 W/m 14,1 km/h (3 Bft) 95,51 %
05.03.2022 09:00 1,9 C 3,3 C -2,0 C 81 % 1021,7 hPa 0,0 l/m 0,77 h 0,00 h 219 W/m 19,2 km/h (3 Bft) 96,65 %
05.03.2022 10:00 4,2 C 9,0 C 1,7 C 74 % 1021,7 hPa 0,0 l/m 0,87 h 0,00 h 350 W/m 17,4 km/h (3 Bft) 95,96 %
05.03.2022 11:00 6,8 C 13,1 C 8,0 C 66 % 1021,7 hPa 0,0 l/m 1,00 h 0,00 h 541 W/m 16,1 km/h (3 Bft) 95,88 %
05.03.2022 12:00 8,1 C 11,6 C 6,3 C 61 % 1021,4 hPa 0,0 l/m 0,90 h 0,00 h 446 W/m 14,1 km/h (3 Bft) 96,32 %
05.03.2022 13:00 9,7 C 18,2 C 5,5 C 56 % 1021,1 hPa 0,0 l/m 1,00 h 0,00 h 579 W/m 13,9 km/h (3 Bft) 97,58 %
05.03.2022 14:00 10,8 C 16,0 C 5,9 C 49 % 1020,8 hPa 0,0 l/m 1,00 h 0,00 h 519 W/m 14,7 km/h (3 Bft) 98,84 %
05.03.2022 15:00 10,8 C 15,6 C 5,6 C 47 % 1020,7 hPa 0,0 l/m 1,00 h 0,00 h 403 W/m 11,5 km/h (2 Bft) 97,31 %
05.03.2022 16:00 10,1 C 11,2 C 4,6 C 47 % 1020,6 hPa 0,0 l/m 0,83 h 0,00 h 223 W/m 9,1 km/h (2 Bft) 94,77 %
05.03.2022 17:00 8,8 C 7,8 C 3,3 C 49 % 1020,5 hPa 0,0 l/m 0,00 h 0,00 h 38 W/m 3,6 km/h (1 Bft) 99,50 %
05.03.2022 18:00 7,4 C 4,6 C 0,1 C 55 % 1020,7 hPa 0,0 l/m 0,00 h 0,00 h 11 W/m 0,0 km/h (0 Bft) 96,58 %
05.03.2022 19:00 5,0 C 2,6 C -1,6 C 63 % 1021,1 hPa 0,0 l/m 0,00 h 0,00 h 0 W/m 0,0 km/h (0 Bft) 96,72 %
05.03.2022 20:00 3,2 C 1,3 C -2,5 C 68 % 1021,4 hPa 0,0 l/m 0,00 h 0,00 h 0 W/m 0,6 km/h (0 Bft) 97,92 %
05.03.2022 21:00 2,4 C 1,7 C -2,2 C 71 % 1021,9 hPa 0,0 l/m 0,00 h 0,00 h 0 W/m 3,4 km/h (1 Bft) 98,43 %
05.03.2022 22:00 2,1 C 0,7 C -3,0 C 70 % 1022,3 hPa 0,0 l/m 0,00 h 0,00 h 0 W/m 2,0 km/h (1 Bft) 98,72 %
05.03.2022 23:00 1,1 C -0,6 C -4,1 C 73 % 1022,7 hPa 0,0 l/m 0,00 h 0,00 h 0 W/m 0,1 km/h (0 Bft) 95,80 %
06.03.2022 00:00 -0,1 C -1,5 C -4,9 C 75 % 1023,1 hPa 0,0 l/m 0,00 h 0,00 h 0 W/m 0,1 km/h (0 Bft) 97,06 %
06.03.2022 01:00 -1,0 C -2,1 C -5,4 C 78 % 1023,4 hPa 0,0 l/m 0,00 h 0,00 h 0 W/m 0,9 km/h (0 Bft) 96,51 %
06.03.2022 02:00 -1,5 C -2,3 C -5,7 C 81 % 1023,6 hPa 0,0 l/m 0,00 h 0,00 h 0 W/m 0,0 km/h (0 Bft) 97,96 %
06.03.2022 03:00 -1,9 C -2,8 C -5,8 C 83 % 1023,7 hPa 0,0 l/m 0,00 h 0,00 h 0 W/m 0,0 km/h (0 Bft) 98,02 %
06.03.2022 04:00 -1,9 C -2,8 C -5,8 C 86 % 1023,7 hPa 0,0 l/m 0,00 h 0,00 h 0 W/m 0,7 km/h (0 Bft) 96,41 %
06.03.2022 05:00 -2,3 C -3,3 C -6,5 C 86 % 1024,1 hPa 0,0 l/m 0,00 h 0,00 h 0 W/m 0,0 km/h (0 Bft) 97,06 %
06.03.2022 06:00 -2,8 C -3,8 C -6,7 C 87 % 1024,4 hPa 0,0 l/m 0,00 h 0,00 h 0 W/m 0,7 km/h (0 Bft) 96,78 %
06.03.2022 07:00 -2,6 C -3,1 C -6,2 C 89 % 1025,1 hPa 0,0 l/m 0,00 h 0,00 h 20 W/m 4,7 km/h (1 Bft) 99,22 %
06.03.2022 08:00 -1,5 C -0,9 C -4,6 C 90 % 1025,6 hPa 0,0 l/m 0,23 h 0,00 h 88 W/m 7,3 km/h (2 Bft) 95,43 %
06.03.2022 09:00 0,7 C 2,2 C -2,4 C 84 % 1026,0 hPa 0,0 l/m 0,73 h 0,00 h 171 W/m 8,7 km/h (2 Bft) 99,15 %
06.03.2022 10:00 2,6 C 5,9 C 0,2 C 77 % 1026,3 hPa 0,0 l/m 0,77 h 0,00 h 311 W/m 11,0 km/h (2 Bft) 96,42 %
06.03.2022 11:00 5,7 C 10,8 C 4,4 C 67 % 1026,3 hPa 0,0 l/m 1,00 h 0,00 h 467 W/m 12,2 km/h (2 Bft) 97,80 %
06.03.2022 12:00 7,0 C 11,9 C 4,0 C 61 % 1026,1 hPa 0,0 l/m 1,00 h 0,00 h 462 W/m 14,2 km/h (3 Bft) 98,53 %
06.03.2022 13:00 7,6 C 12,9 C 3,4 C 55 % 1025,8 hPa 0,0 l/m 0,63 h 0,00 h 408 W/m 16,8 km/h (3 Bft) 97,93 %
06.03.2022 14:00 7,8 C 12,7 C 3,5 C 54 % 1025,6 hPa 0,0 l/m 0,67 h 0,00 h 428 W/m 19,7 km/h (3 Bft) 95,36 %
06.03.2022 15:00 7,1 C 10,1 C 3,0 C 56 % 1025,5 hPa 0,0 l/m 0,70 h 0,00 h 320 W/m 19,9 km/h (4 Bft) 98,93 %
06.03.2022 16:00 6,2 C 7,5 C 1,6 C 58 % 1025,5 hPa 0,0 l/m 0,70 h 0,00 h 198 W/m 16,5 km/h (3 Bft) 98,22 %
06.03.2022 17:00 5,0 C 4,7 C 0,7 C 60 % 1025,4 hPa 0,0 l/m 0,23 h 0,00 h 58 W/m 15,8 km/h (3 Bft) 96,37 %
06.03.2022 18:00 4,0 C 3,0 C -0,6 C 63 % 1025,7 hPa 0,0 l/m 0,07 h 0,00 h 12 W/m 15,0 km/h (3 Bft) 93,35 %
06.03.2022 19:00 2,9 C 1,7 C -1,7 C 67 % 1026,2 hPa 0,0 l/m 0,00 h 0,00 h 0 W/m 9,2 km/h (2 Bft) 98,65 %
06.03.2022 20:00 1,6 C 0,3 C -3,1 C 72 % 1026,7 hPa 0,0 l/m 0,00 h 0,00 h 0 W/m 3,8 km/h (1 Bft) 95,73 %
06.03.2022 21:00 0,6 C -0,5 C -4,1 C 75 % 1027,1 hPa 0,0 l/m 0,00 h 0,00 h 0 W/m 2,8 km/h (1 Bft) 94,81 %
06.03.2022 22:00 -0,0 C -1,1 C -4,6 C 77 % 1027,5 hPa 0,0 l/m 0,00 h 0,00 h 0 W/m 2,7 km/h (1 Bft) 97,23 %
06.03.2022 23:00 -0,5 C -1,6 C -5,0 C 79 % 1027,5 hPa 0,0 l/m 0,00 h 0,00 h 0 W/m 2,8 km/h (1 Bft) 98,22 %
Min-Datum _ 06.03.22 06.03.22 03.03.22 03.03.22 03.03.22 - - - - 01.03.22 05.03.22
_ Min-Zeit 06:42 06:10 07:00 15:08 16:52 - - - - 02:08 00:02
Minimum _ -2,9 C -3,9 C -6,7 C 36 % 1017,3 hPa - - - - 0,0 km/h (0 Bft) 9,09 %
Max-Datum _ 03.03.22 02.03.22 02.03.22 03.03.22 28.02.22 28.02.22 01.03.22 28.02.22 06.03.22 28.02.22 28.02.22
_ Max-Zeit 15:38 13:44 11:28 09:12 11:42 00:00 12:08 00:00 11:52 00:02 00:00
Maximum _ 14,4 C 27,2 C 12,8 C 91 % 1032,0 hPa 0,0 l/m 0,07 h 0,00 h 729 W/m 38,6 km/h
S-SO (5 Bft)
100,00 %
Durchschnitt _ 4,6 C 5,4 C 0,3 C 67 % 1024,2 hPa #0,0 l/m #48:38 h #0 min. 254 W/m 8,5 km/h (2 Bft) 97,15 %
© 2022 W. Hausmann